createdAt,value
2023-05-11T00:00:14.641Z,56.93
2023-05-11T00:02:45.903Z,57.19
2023-05-11T00:05:14.963Z,58.02
2023-05-11T00:07:43.756Z,58.13
2023-05-11T00:10:15.680Z,58.57
2023-05-11T00:12:44.726Z,58.70
2023-05-11T00:15:15.678Z,59.12
2023-05-11T00:17:45.809Z,61.34
2023-05-11T00:20:14.861Z,58.87
2023-05-11T00:22:44.942Z,59.54
2023-05-11T00:25:13.987Z,58.96
2023-05-11T00:27:46.181Z,59.54
2023-05-11T00:30:17.028Z,59.08
2023-05-11T00:32:46.651Z,58.91
2023-05-11T00:35:15.383Z,59.34
2023-05-11T00:37:44.938Z,59.83
2023-05-11T00:40:13.847Z,59.65
2023-05-11T00:42:42.652Z,59.64
2023-05-11T00:45:13.713Z,59.79
2023-05-11T00:47:44.930Z,60.71
2023-05-11T00:50:13.850Z,60.02
2023-05-11T00:52:43.522Z,59.71
2023-05-11T00:55:14.908Z,59.75
2023-05-11T00:57:43.842Z,60.42
2023-05-11T01:00:14.800Z,60.63
2023-05-11T01:02:45.549Z,60.26
2023-05-11T01:05:14.880Z,60.26
2023-05-11T01:07:53.262Z,61.03
2023-05-11T01:10:33.930Z,60.85
2023-05-11T01:13:12.192Z,61.68
2023-05-11T01:15:49.521Z,62.16
2023-05-11T01:18:31.406Z,62.28
2023-05-11T01:21:07.059Z,62.23
2023-05-11T01:24:02.464Z,63.27
2023-05-11T01:27:07.550Z,63.93
2023-05-11T01:30:00.873Z,64.12
2023-05-11T01:32:36.736Z,62.88
2023-05-11T01:35:10.183Z,62.63
2023-05-11T01:37:47.807Z,62.63
2023-05-11T01:40:18.931Z,62.93
2023-05-11T01:42:55.078Z,63.76
2023-05-11T01:45:25.814Z,63.65
2023-05-11T01:48:00.557Z,64.06
2023-05-11T01:50:32.679Z,63.88
2023-05-11T01:53:06.805Z,65.12
2023-05-11T01:55:37.165Z,64.89
2023-05-11T01:58:07.803Z,65.32
2023-05-11T02:00:37.877Z,66.02
2023-05-11T02:03:10.955Z,65.85
2023-05-11T02:05:42.576Z,66.64
2023-05-11T02:08:13.372Z,67.10
2023-05-11T02:10:43.951Z,67.49
2023-05-11T02:13:13.615Z,67.71
2023-05-11T02:15:46.977Z,67.68
2023-05-11T02:18:17.764Z,67.98
2023-05-11T02:20:48.219Z,68.75
2023-05-11T02:23:18.528Z,68.56
2023-05-11T02:25:48.622Z,68.69
2023-05-11T02:28:17.533Z,69.49
2023-05-11T02:30:48.594Z,69.10
2023-05-11T02:33:23.453Z,70.09
2023-05-11T02:35:55.509Z,70.11
2023-05-11T02:38:32.550Z,70.27
2023-05-11T02:41:07.495Z,71.03
2023-05-11T02:43:41.339Z,71.63
2023-05-11T02:46:18.545Z,71.48
2023-05-11T02:48:54.680Z,71.67
2023-05-11T02:51:31.439Z,71.89
2023-05-11T02:54:02.612Z,72.31
2023-05-11T02:56:35.720Z,71.74
2023-05-11T02:59:05.396Z,72.48
2023-05-11T03:01:35.273Z,73.24
2023-05-11T03:04:07.259Z,73.69
2023-05-11T03:06:37.418Z,73.31
2023-05-11T03:09:10.304Z,72.97
2023-05-11T03:11:45.083Z,72.63
2023-05-11T03:14:14.411Z,71.94
2023-05-11T03:16:45.815Z,71.26
2023-05-11T03:19:18.121Z,71.29
2023-05-11T03:21:48.021Z,70.55
2023-05-11T03:24:18.997Z,70.03
2023-05-11T03:26:49.406Z,69.30
2023-05-11T03:29:19.069Z,69.33
2023-05-11T03:31:51.217Z,68.99
2023-05-11T03:34:24.326Z,68.97
2023-05-11T03:36:56.673Z,69.46
2023-05-11T03:39:26.055Z,69.77
2023-05-11T03:41:56.593Z,69.42
2023-05-11T03:44:27.763Z,69.84
2023-05-11T03:47:01.061Z,69.68
2023-05-11T03:49:31.802Z,69.55
2023-05-11T03:52:01.506Z,69.56
2023-05-11T03:54:30.567Z,69.82
2023-05-11T03:56:59.476Z,69.87
2023-05-11T03:59:28.109Z,69.60
2023-05-11T04:01:59.000Z,68.98
2023-05-11T04:04:36.034Z,70.12
2023-05-11T04:07:07.198Z,69.57
2023-05-11T04:09:39.037Z,69.74
2023-05-11T04:12:08.130Z,69.05
2023-05-11T04:14:37.087Z,69.02
2023-05-11T04:17:08.795Z,69.06
2023-05-11T04:19:38.806Z,69.26
2023-05-11T04:22:07.557Z,68.93
2023-05-11T04:24:46.488Z,69.12
2023-05-11T04:27:17.147Z,69.57
2023-05-11T04:29:45.843Z,68.84
2023-05-11T04:32:16.631Z,68.81
2023-05-11T04:34:47.436Z,69.42
2023-05-11T04:37:19.157Z,68.96
2023-05-11T04:39:47.767Z,68.75
2023-05-11T04:42:16.451Z,68.80
2023-05-11T04:44:47.973Z,68.64
2023-05-11T04:47:19.652Z,67.50
2023-05-11T04:49:50.996Z,67.59
2023-05-11T04:52:19.849Z,67.43
2023-05-11T04:54:50.727Z,66.19
2023-05-11T04:57:19.369Z,66.29
2023-05-11T04:59:49.071Z,66.00
2023-05-11T05:02:17.871Z,64.95
2023-05-11T05:04:47.279Z,64.83
2023-05-11T05:07:18.192Z,63.89
2023-05-11T05:09:47.610Z,63.41
2023-05-11T05:12:19.886Z,63.47
2023-05-11T05:14:48.689Z,62.87
2023-05-11T05:17:20.443Z,62.45
2023-05-11T05:19:49.296Z,62.00
2023-05-11T05:22:20.308Z,61.61
2023-05-11T05:24:49.259Z,60.63
2023-05-11T05:27:18.864Z,60.74
2023-05-11T05:29:48.234Z,59.95
2023-05-11T05:32:17.289Z,59.90
2023-05-11T05:34:49.120Z,59.26
2023-05-11T05:37:22.918Z,58.92
2023-05-11T05:39:52.821Z,57.49
2023-05-11T05:42:22.794Z,57.26
2023-05-11T05:44:52.442Z,56.44
2023-05-11T05:47:22.141Z,56.25
2023-05-11T05:49:51.105Z,56.09
2023-05-11T05:52:23.999Z,55.81
2023-05-11T05:54:52.763Z,54.44
2023-05-11T05:57:22.833Z,52.97
2023-05-11T05:59:52.077Z,52.04
2023-05-11T06:02:22.087Z,51.30
2023-05-11T06:04:51.299Z,50.19
2023-05-11T06:07:20.620Z,49.60
2023-05-11T06:09:51.053Z,50.17
2023-05-11T06:12:20.062Z,49.32
2023-05-11T06:14:51.283Z,48.63
2023-05-11T06:17:20.749Z,48.17
2023-05-11T06:19:51.664Z,47.80
2023-05-11T06:22:26.611Z,47.79
2023-05-11T06:24:58.327Z,47.64
2023-05-11T06:27:29.405Z,47.08
2023-05-11T06:30:03.410Z,46.56
2023-05-11T06:32:37.073Z,45.91
2023-05-11T06:35:11.017Z,45.37
2023-05-11T06:37:40.168Z,45.73
2023-05-11T06:40:11.572Z,45.63
2023-05-11T06:42:40.795Z,45.38
2023-05-11T06:45:12.588Z,44.74
2023-05-11T06:47:46.415Z,44.42
2023-05-11T06:50:17.259Z,45.37
2023-05-11T06:52:47.539Z,45.09
2023-05-11T06:55:18.893Z,44.13
2023-05-11T06:57:47.982Z,43.63
2023-05-11T07:00:18.144Z,43.55
2023-05-11T07:02:50.963Z,43.22
2023-05-11T07:05:25.760Z,42.75
2023-05-11T07:07:54.847Z,43.24
2023-05-11T07:10:26.391Z,42.58
2023-05-11T07:12:56.700Z,42.56
2023-05-11T07:15:25.765Z,42.58
2023-05-11T07:17:54.842Z,41.85
2023-05-11T07:20:24.122Z,41.70
2023-05-11T07:22:53.605Z,41.20
2023-05-11T07:25:22.771Z,41.31
2023-05-11T07:27:53.385Z,40.88
2023-05-11T07:30:23.196Z,40.67
2023-05-11T07:32:52.858Z,40.70
2023-05-11T07:35:23.889Z,40.21
2023-05-11T07:37:53.238Z,40.14
2023-05-11T07:40:22.708Z,40.07
2023-05-11T07:42:54.357Z,39.05
2023-05-11T07:45:23.437Z,37.26
2023-05-11T07:47:52.938Z,39.22
2023-05-11T07:50:24.461Z,39.00
2023-05-11T07:52:54.615Z,38.79
2023-05-11T07:55:25.248Z,38.66
2023-05-11T07:57:55.916Z,38.62
2023-05-11T08:00:25.251Z,38.41
2023-05-11T08:02:54.782Z,38.29
2023-05-11T08:05:27.312Z,38.06
2023-05-11T08:07:56.461Z,38.17
2023-05-11T08:10:25.862Z,37.49
2023-05-11T08:12:56.799Z,37.74
2023-05-11T08:15:26.091Z,37.51
2023-05-11T08:17:55.360Z,37.52
2023-05-11T08:20:25.837Z,36.94
2023-05-11T08:22:55.356Z,37.42
2023-05-11T08:25:24.969Z,37.24
2023-05-11T08:27:55.636Z,36.89
2023-05-11T08:30:25.813Z,36.75
2023-05-11T08:32:58.974Z,35.98
2023-05-11T08:35:28.141Z,35.58
2023-05-11T08:37:57.514Z,35.94
2023-05-11T08:40:29.075Z,36.09
2023-05-11T08:43:02.673Z,34.87
2023-05-11T08:45:35.230Z,35.48
2023-05-11T08:48:04.958Z,36.27
2023-05-11T08:50:34.885Z,35.52
2023-05-11T08:53:04.466Z,36.36
2023-05-11T08:55:35.699Z,36.31
2023-05-11T08:58:08.094Z,35.66
2023-05-11T09:00:37.689Z,35.82
2023-05-11T09:03:08.689Z,35.83
2023-05-11T09:05:38.237Z,35.41
2023-05-11T09:08:09.524Z,35.36
2023-05-11T09:10:38.896Z,34.50
2023-05-11T09:13:08.963Z,35.18
2023-05-11T09:15:38.344Z,34.81
2023-05-11T09:18:08.111Z,35.43
2023-05-11T09:20:36.909Z,34.90
2023-05-11T09:23:05.883Z,35.35
2023-05-11T09:25:35.228Z,34.57
2023-05-11T09:28:04.430Z,34.63
2023-05-11T09:30:36.214Z,33.99
2023-05-11T09:33:05.444Z,31.58
2023-05-11T09:35:36.982Z,34.12
2023-05-11T09:38:08.070Z,34.04
2023-05-11T09:40:43.341Z,34.25
2023-05-11T09:43:18.610Z,33.99
2023-05-11T09:45:49.985Z,33.63
2023-05-11T09:48:30.295Z,32.48
2023-05-11T09:51:04.835Z,33.41
2023-05-11T09:53:41.156Z,33.84
2023-05-11T09:56:10.381Z,33.75
2023-05-11T09:58:48.560Z,31.55
2023-05-11T10:01:20.560Z,32.73
2023-05-11T10:03:52.019Z,32.51
2023-05-11T10:06:21.676Z,32.55
2023-05-11T10:08:50.754Z,32.83
2023-05-11T10:11:26.042Z,32.94
2023-05-11T10:13:56.067Z,32.59
2023-05-11T10:16:27.119Z,32.71
2023-05-11T10:18:57.078Z,32.41
2023-05-11T10:21:26.314Z,32.51
2023-05-11T10:23:55.325Z,32.57
2023-05-11T10:26:24.876Z,32.25
2023-05-11T10:28:55.074Z,31.91
2023-05-11T10:31:26.377Z,32.67
2023-05-11T10:37:02.895Z,32.22
2023-05-11T10:39:31.658Z,31.34
2023-05-11T10:42:21.740Z,31.22
2023-05-11T10:45:15.810Z,29.01
2023-05-11T10:48:24.703Z,30.51
2023-05-11T10:51:17.105Z,31.19
2023-05-11T10:57:26.754Z,31.75
2023-05-11T11:00:43.936Z,29.63
2023-05-11T11:03:13.552Z,31.59
2023-05-11T11:05:44.202Z,31.25
2023-05-11T11:08:14.719Z,30.70
2023-05-11T11:10:46.376Z,31.36
2023-05-11T11:13:20.262Z,30.54
2023-05-11T11:16:16.609Z,29.78
2023-05-11T11:18:46.063Z,31.08
2023-05-11T11:21:16.135Z,30.93
2023-05-11T11:23:50.557Z,29.95
2023-05-11T11:26:41.068Z,30.47
2023-05-11T11:29:12.304Z,30.60
2023-05-11T11:31:42.415Z,31.01
2023-05-11T11:34:34.389Z,28.91
2023-05-11T11:37:12.451Z,30.72
2023-05-11T11:40:02.592Z,29.07
2023-05-11T11:42:41.969Z,30.60
2023-05-11T11:45:31.832Z,29.91
2023-05-11T11:48:13.517Z,30.21
2023-05-11T11:50:43.086Z,29.77
2023-05-11T11:53:32.070Z,31.34
2023-05-11T11:56:02.520Z,31.09
2023-05-11T11:59:04.595Z,30.00
2023-05-11T12:01:39.051Z,31.00
2023-05-11T12:04:46.303Z,31.05
2023-05-11T12:07:17.671Z,32.12
2023-05-11T12:09:48.125Z,32.63
2023-05-11T12:12:21.481Z,31.88
2023-05-11T12:14:51.680Z,32.54
2023-05-11T12:17:29.860Z,32.42
2023-05-11T12:20:13.974Z,31.46
2023-05-11T12:22:44.804Z,31.19
2023-05-11T12:25:16.054Z,30.81
2023-05-11T12:27:55.378Z,30.48
2023-05-11T12:30:26.290Z,30.77
2023-05-11T12:32:56.904Z,30.71
2023-05-11T12:35:28.223Z,30.82
2023-05-11T12:37:58.556Z,30.69
2023-05-11T12:40:28.316Z,31.08
2023-05-11T12:43:00.597Z,31.17
2023-05-11T12:45:30.148Z,30.99
2023-05-11T12:47:59.204Z,30.78
2023-05-11T12:50:28.012Z,30.21
2023-05-11T12:53:13.148Z,30.88
2023-05-11T12:55:42.934Z,31.83
2023-05-11T12:58:15.743Z,31.11
2023-05-11T13:00:55.076Z,30.46
2023-05-11T13:03:25.281Z,31.94
2023-05-11T13:06:08.578Z,31.68
2023-05-11T13:08:38.345Z,33.06
2023-05-11T13:11:25.864Z,32.25
2023-05-11T13:14:01.602Z,34.69
2023-05-11T13:16:31.975Z,33.79
2023-05-11T13:19:03.513Z,33.12
2023-05-11T13:21:33.652Z,30.76
2023-05-11T13:24:04.081Z,31.70
2023-05-11T13:26:33.398Z,31.74
2023-05-11T13:29:10.172Z,31.97
2023-05-11T13:31:46.573Z,31.23
2023-05-11T13:34:17.006Z,30.90
2023-05-11T13:36:49.147Z,30.92
2023-05-11T13:39:19.704Z,31.01
2023-05-11T13:41:48.743Z,30.91
2023-05-11T13:44:19.448Z,30.99
2023-05-11T13:46:48.340Z,31.65
2023-05-11T13:49:17.754Z,31.69
2023-05-11T13:51:46.860Z,31.12
2023-05-11T13:54:16.202Z,31.17
2023-05-11T13:56:45.990Z,31.36
2023-05-11T13:59:15.395Z,31.69
2023-05-11T14:01:46.324Z,31.66
2023-05-11T14:04:15.635Z,32.13
2023-05-11T14:06:46.152Z,32.26
2023-05-11T14:09:15.181Z,32.50
2023-05-11T14:11:44.521Z,32.08
2023-05-11T14:14:14.335Z,31.64
2023-05-11T14:16:43.839Z,31.74
2023-05-11T14:19:15.430Z,31.78
2023-05-11T14:21:44.665Z,32.03
2023-05-11T14:24:14.278Z,31.74
2023-05-11T14:26:43.440Z,31.51
2023-05-11T14:29:12.544Z,32.03
2023-05-11T14:31:42.836Z,31.96
2023-05-11T14:34:13.518Z,31.89
2023-05-11T14:36:43.050Z,31.91
2023-05-11T14:39:12.274Z,31.69
2023-05-11T14:41:41.700Z,31.85
2023-05-11T14:44:11.140Z,31.76
2023-05-11T14:46:40.381Z,32.02
2023-05-11T14:49:09.549Z,32.25
2023-05-11T14:51:40.162Z,32.46
2023-05-11T14:54:09.338Z,31.83
2023-05-11T14:56:38.369Z,32.23
2023-05-11T14:59:07.232Z,32.08
2023-05-11T15:01:36.957Z,32.34
2023-05-11T15:04:09.648Z,32.68
2023-05-11T15:06:40.674Z,33.05
2023-05-11T15:09:09.902Z,32.97
2023-05-11T15:11:39.396Z,33.05
2023-05-11T15:14:11.054Z,33.12
2023-05-11T15:16:40.822Z,33.05
2023-05-11T15:19:10.298Z,33.35
2023-05-11T15:21:41.020Z,33.02
2023-05-11T15:24:11.154Z,33.40
2023-05-11T15:26:40.530Z,33.35
2023-05-11T15:29:09.621Z,33.43
2023-05-11T15:31:39.088Z,33.65
2023-05-11T15:34:08.242Z,33.58
2023-05-11T15:36:37.845Z,33.46
2023-05-11T15:39:09.345Z,33.94
2023-05-11T15:41:39.270Z,33.93
2023-05-11T15:44:08.269Z,33.55
2023-05-11T15:46:41.380Z,33.76
2023-05-11T15:49:10.522Z,34.22
2023-05-11T15:51:39.910Z,34.12
2023-05-11T15:54:10.929Z,33.89
2023-05-11T15:56:40.610Z,34.35
2023-05-11T15:59:09.916Z,34.39
2023-05-11T16:01:39.008Z,34.44
2023-05-11T16:04:09.514Z,34.17
2023-05-11T16:06:39.632Z,34.62
2023-05-11T16:09:11.615Z,34.63
2023-05-11T16:11:40.997Z,34.65
2023-05-11T16:14:10.493Z,34.54
2023-05-11T16:16:42.045Z,34.71
2023-05-11T16:19:11.851Z,34.49
2023-05-11T16:21:41.003Z,34.75
2023-05-11T16:24:11.733Z,34.84
2023-05-11T16:26:44.300Z,34.85
2023-05-11T16:29:14.132Z,35.05
2023-05-11T16:31:43.392Z,35.45
2023-05-11T16:34:12.786Z,35.09
2023-05-11T16:36:42.175Z,35.52
2023-05-11T16:39:12.847Z,35.80
2023-05-11T16:41:41.980Z,36.15
2023-05-11T16:44:11.498Z,36.11
2023-05-11T16:46:40.600Z,36.08
2023-05-11T16:49:10.370Z,36.19
2023-05-11T16:51:39.793Z,36.35
2023-05-11T16:54:10.664Z,36.41
2023-05-11T16:56:40.946Z,36.69
2023-05-11T16:59:11.184Z,36.38
2023-05-11T17:01:40.924Z,36.68
2023-05-11T17:04:10.476Z,36.86
2023-05-11T17:06:39.460Z,36.76
2023-05-11T17:09:09.305Z,37.21
2023-05-11T17:11:40.313Z,37.21
2023-05-11T17:14:10.839Z,37.15
2023-05-11T17:16:39.868Z,37.56
2023-05-11T17:19:09.908Z,37.58
2023-05-11T17:21:38.863Z,37.40
2023-05-11T17:24:08.176Z,37.82
2023-05-11T17:26:47.060Z,38.38
2023-05-11T17:29:19.333Z,38.57
2023-05-11T17:31:51.859Z,39.08
2023-05-11T17:34:22.354Z,39.04
2023-05-11T17:36:54.868Z,39.30
2023-05-11T17:39:24.108Z,39.02
2023-05-11T17:41:53.045Z,39.33
2023-05-11T17:44:23.821Z,39.43
2023-05-11T17:46:52.953Z,40.18
2023-05-11T17:49:21.986Z,39.98
2023-05-11T17:51:54.099Z,39.88
2023-05-11T17:54:23.466Z,40.26
2023-05-11T17:56:52.624Z,40.49
2023-05-11T17:59:23.381Z,40.31
2023-05-11T18:01:53.010Z,40.49
2023-05-11T18:04:22.787Z,40.88
2023-05-11T18:06:52.525Z,41.06
2023-05-11T18:09:22.452Z,41.16
2023-05-11T18:11:51.617Z,41.19
2023-05-11T18:14:22.667Z,41.66
2023-05-11T18:16:52.817Z,41.59
2023-05-11T18:19:21.790Z,41.69
2023-05-11T18:21:52.197Z,42.19
2023-05-11T18:24:21.827Z,41.89
2023-05-11T18:26:52.211Z,42.13
2023-05-11T18:29:22.916Z,41.74
2023-05-11T18:31:52.781Z,42.46
2023-05-11T18:34:22.063Z,42.93
2023-05-11T18:36:51.451Z,43.60
2023-05-11T18:39:20.652Z,44.05
2023-05-11T18:41:49.749Z,44.18
2023-05-11T18:44:19.437Z,44.73
2023-05-11T18:46:49.625Z,44.99
2023-05-11T18:49:18.626Z,45.63
2023-05-11T18:51:47.682Z,46.07
2023-05-11T18:54:16.909Z,46.31
2023-05-11T18:56:45.720Z,47.01
2023-05-11T18:59:17.411Z,47.76
2023-05-11T19:01:48.572Z,47.57
2023-05-11T19:04:20.572Z,48.10
2023-05-11T19:06:49.427Z,47.90
2023-05-11T19:09:18.235Z,48.30
2023-05-11T19:11:47.517Z,48.41
2023-05-11T19:14:16.387Z,48.61
2023-05-11T19:16:46.458Z,48.61
2023-05-11T19:19:15.241Z,48.76
2023-05-11T19:21:46.077Z,48.82
2023-05-11T19:24:15.033Z,48.50
2023-05-11T19:26:47.392Z,49.23
2023-05-11T19:29:24.542Z,49.34
2023-05-11T19:31:53.623Z,48.94
2023-05-11T19:34:22.739Z,48.87
2023-05-11T19:36:53.249Z,48.81
2023-05-11T19:39:22.661Z,49.47
2023-05-11T19:41:51.949Z,49.60
2023-05-11T19:44:21.003Z,49.11
2023-05-11T19:46:50.143Z,49.37
2023-05-11T19:49:19.554Z,49.52
2023-05-11T19:51:49.072Z,49.45
2023-05-11T19:54:19.292Z,50.16
2023-05-11T19:56:48.404Z,50.32
2023-05-11T19:59:17.508Z,50.34
2023-05-11T20:01:46.872Z,50.27
2023-05-11T20:04:16.052Z,50.75
2023-05-11T20:06:45.324Z,50.63
2023-05-11T20:09:14.103Z,50.23
2023-05-11T20:11:44.417Z,49.71
2023-05-11T20:14:13.518Z,49.67
2023-05-11T20:16:43.105Z,50.22
2023-05-11T20:19:12.299Z,50.83
2023-05-11T20:21:41.916Z,51.42
2023-05-11T20:24:10.948Z,51.73
2023-05-11T20:26:39.773Z,52.42
2023-05-11T20:29:10.687Z,52.97
2023-05-11T20:31:40.563Z,53.70
2023-05-11T20:34:11.921Z,53.67
2023-05-11T20:36:42.010Z,53.30
2023-05-11T20:39:11.084Z,53.14
2023-05-11T20:41:40.285Z,53.36
2023-05-11T20:44:13.898Z,53.76
2023-05-11T20:46:43.074Z,53.66
2023-05-11T20:49:22.278Z,53.64
2023-05-11T20:51:57.186Z,54.51
2023-05-11T20:54:26.286Z,53.73
2023-05-11T20:56:59.708Z,54.18
2023-05-11T21:02:07.257Z,53.92
2023-05-11T21:04:37.902Z,53.47
2023-05-11T21:07:06.810Z,53.40
2023-05-11T21:09:36.209Z,53.44
2023-05-11T21:12:06.191Z,53.28
2023-05-11T21:14:37.388Z,53.04
2023-05-11T21:17:06.423Z,52.86
2023-05-11T21:19:35.472Z,53.20
2023-05-11T21:22:05.220Z,53.57
2023-05-11T21:24:34.044Z,52.81
2023-05-11T21:27:03.319Z,53.13
2023-05-11T21:29:31.982Z,53.73
2023-05-11T21:32:02.580Z,53.76
2023-05-11T21:34:31.866Z,54.46
2023-05-11T21:37:01.215Z,54.19
2023-05-11T21:39:30.038Z,53.84
2023-05-11T21:41:59.011Z,53.82
2023-05-11T21:44:27.689Z,53.65
2023-05-11T21:46:59.563Z,54.25
2023-05-11T21:49:30.360Z,54.14
2023-05-11T21:51:59.258Z,54.23
2023-05-11T21:54:28.177Z,54.53
2023-05-11T21:56:56.988Z,54.20
2023-05-11T21:59:27.042Z,54.73
2023-05-11T22:01:57.352Z,54.83
2023-05-11T22:04:27.282Z,55.17
2023-05-11T22:07:00.968Z,55.39
2023-05-11T22:09:31.641Z,55.34
2023-05-11T22:12:00.702Z,55.46
2023-05-11T22:14:29.334Z,55.41
2023-05-11T22:16:58.437Z,55.46
2023-05-11T22:19:27.365Z,55.79
2023-05-11T22:21:58.060Z,55.67
2023-05-11T22:24:27.658Z,55.69
2023-05-11T22:26:56.578Z,55.91
2023-05-11T22:29:25.628Z,55.64
2023-05-11T22:31:54.329Z,55.89
2023-05-11T22:34:23.117Z,55.85
2023-05-11T22:36:52.278Z,56.54
2023-05-11T22:39:23.565Z,56.58
2023-05-11T22:41:52.529Z,56.84
2023-05-11T22:44:21.647Z,56.88
2023-05-11T22:46:51.009Z,56.94
2023-05-11T22:49:19.940Z,56.86
2023-05-11T22:51:48.824Z,57.12
2023-05-11T22:54:17.956Z,57.08
2023-05-11T22:56:48.012Z,57.93
2023-05-11T22:59:16.965Z,57.46
2023-05-11T23:01:45.722Z,57.93
2023-05-11T23:04:15.246Z,58.23
2023-05-11T23:06:45.955Z,57.73
2023-05-11T23:09:15.161Z,58.30
2023-05-11T23:11:44.384Z,58.68
2023-05-11T23:14:14.499Z,58.87
2023-05-11T23:16:43.684Z,58.69
2023-05-11T23:19:12.254Z,58.71
2023-05-11T23:21:40.916Z,59.56
2023-05-11T23:24:09.651Z,59.78
2023-05-11T23:26:38.869Z,60.82
2023-05-11T23:29:07.656Z,61.24
2023-05-11T23:31:38.067Z,61.35
2023-05-11T23:34:07.082Z,61.74
2023-05-11T23:36:36.096Z,61.89
2023-05-11T23:39:05.550Z,62.42
2023-05-11T23:41:34.149Z,62.69
2023-05-11T23:44:03.522Z,61.83
2023-05-11T23:46:32.680Z,62.86
2023-05-11T23:49:03.237Z,63.48
2023-05-11T23:51:35.481Z,63.02
2023-05-11T23:54:04.296Z,63.42
2023-05-11T23:56:32.997Z,63.20
2023-05-11T23:59:02.029Z,63.04
